Time;durP1;ratioP1;P1;durP2;ratioP2;P2;SDS_P1;SDS_P2;PMS_P1;PMS_P2;Temp;Humidity;BMP_temperature;BMP_pressure;BME280_temperature;BME280_humidity;BME280_pressure;Samples;Min_cycle;Max_cycle;Signal;HPM_P1;HPM_P2
2021/05/28 00:00:57;;;;;;;11.75;6.43;;;9.00;99.90;;;;;;5056039;28;20087;-74
2021/05/28 00:03:22;;;;;;;13.40;7.15;;;9.00;99.90;;;;;;5060220;28;20043;-74
2021/05/28 00:05:48;;;;;;;14.57;5.95;;;9.00;99.90;;;;;;5059705;28;20796;-74
2021/05/28 00:08:14;;;;;;;11.23;7.22;;;9.00;99.90;;;;;;5056975;28;20037;-74
2021/05/28 00:10:40;;;;;;;14.15;8.30;;;9.00;99.90;;;;;;5059426;28;20040;-74
2021/05/28 00:13:05;;;;;;;15.20;8.35;;;9.00;99.90;;;;;;5054913;28;20037;-74
2021/05/28 00:15:33;;;;;;;14.40;8.00;;;9.00;99.90;;;;;;5060088;28;20036;-74
2021/05/28 00:17:59;;;;;;;18.00;8.15;;;9.00;99.90;;;;;;5058788;28;20047;-73
2021/05/28 00:20:25;;;;;;;19.70;8.63;;;9.10;99.90;;;;;;5057352;28;20037;-74
2021/05/28 00:22:51;;;;;;;15.50;8.63;;;9.10;99.90;;;;;;5059050;28;20048;-74
2021/05/28 00:25:17;;;;;;;15.80;7.95;;;9.10;99.90;;;;;;5056088;28;20055;-74
2021/05/28 00:27:43;;;;;;;19.58;8.32;;;9.10;99.90;;;;;;5056916;28;20033;-73
2021/05/28 00:30:10;;;;;;;18.20;8.70;;;9.10;99.90;;;;;;5058160;28;20048;-74
2021/05/28 00:32:36;;;;;;;17.25;9.55;;;9.20;99.90;;;;;;5057701;28;20052;-74
2021/05/28 00:35:02;;;;;;;14.50;8.90;;;9.20;99.90;;;;;;5060210;28;20111;-74
2021/05/28 00:37:28;;;;;;;17.92;10.35;;;9.20;99.90;;;;;;5059525;28;20490;-74
2021/05/28 00:39:53;;;;;;;17.63;10.48;;;9.20;99.90;;;;;;5054852;28;20041;-74
2021/05/28 00:42:19;;;;;;;21.30;11.35;;;9.20;99.90;;;;;;5058433;28;20410;-74
2021/05/28 00:44:45;;;;;;;18.73;10.32;;;9.20;99.90;;;;;;5062375;28;20043;-74
2021/05/28 00:47:11;;;;;;;22.65;11.52;;;9.20;99.90;;;;;;5056055;28;20052;-74
2021/05/28 00:49:37;;;;;;;21.75;11.55;;;9.20;99.90;;;;;;5054988;28;20483;-74
2021/05/28 00:52:03;;;;;;;18.40;11.43;;;9.20;99.90;;;;;;5057082;28;20029;-74
2021/05/28 00:54:30;;;;;;;22.50;11.65;;;9.20;99.90;;;;;;5056067;28;20044;-74
2021/05/28 00:56:55;;;;;;;16.30;9.73;;;9.10;99.90;;;;;;5061116;28;20040;-74
2021/05/28 00:59:23;;;;;;;22.02;11.25;;;9.10;99.90;;;;;;5056584;28;20123;-74
2021/05/28 01:01:49;;;;;;;18.42;9.68;;;9.10;99.90;;;;;;5054501;28;20462;-74
2021/05/28 01:04:15;;;;;;;21.40;9.40;;;9.10;99.90;;;;;;5060053;28;20044;-74
2021/05/28 01:06:41;;;;;;;23.88;9.77;;;9.10;99.90;;;;;;5058283;28;20619;-74
2021/05/28 01:09:08;;;;;;;17.00;9.98;;;9.10;99.90;;;;;;5056092;28;20449;-74
2021/05/28 01:11:35;;;;;;;17.58;10.13;;;9.10;99.90;;;;;;5052891;28;20434;-74
2021/05/28 01:14:01;;;;;;;14.27;8.43;;;9.20;99.90;;;;;;5055997;28;20060;-74
2021/05/28 01:16:27;;;;;;;16.77;9.07;;;9.10;99.90;;;;;;5056168;28;20047;-74
2021/05/28 01:18:53;;;;;;;15.07;9.68;;;9.10;99.90;;;;;;5052670;28;20047;-74
2021/05/28 01:21:20;;;;;;;16.00;8.73;;;9.20;99.90;;;;;;5052224;28;20962;-74
2021/05/28 01:23:47;;;;;;;15.43;8.57;;;9.20;99.90;;;;;;5055621;28;20045;-74
2021/05/28 01:26:14;;;;;;;16.15;8.38;;;9.20;99.90;;;;;;5052802;28;20036;-74
2021/05/28 01:28:40;;;;;;;16.98;8.85;;;9.30;99.90;;;;;;5053853;28;20040;-74
2021/05/28 01:31:06;;;;;;;13.65;7.50;;;9.20;99.90;;;;;;5059170;28;20486;-74
2021/05/28 01:33:32;;;;;;;15.45;8.88;;;9.30;99.90;;;;;;5055220;28;20511;-74
2021/05/28 01:35:59;;;;;;;20.40;8.05;;;9.30;99.90;;;;;;5055811;28;20119;-74
2021/05/28 01:38:26;;;;;;;10.73;7.20;;;9.30;99.90;;;;;;5058103;28;20044;-74
2021/05/28 01:40:52;;;;;;;23.08;8.02;;;9.30;99.90;;;;;;5056491;28;20039;-74
2021/05/28 01:43:18;;;;;;;13.27;7.07;;;9.30;99.90;;;;;;5058983;28;20241;-74
2021/05/28 01:45:44;;;;;;;13.75;7.22;;;9.30;99.90;;;;;;5060627;28;20045;-74
2021/05/28 01:48:10;;;;;;;14.23;7.78;;;9.30;99.90;;;;;;5087567;27;20041;-74
2021/05/28 01:50:46;;;;;;;20.15;8.18;;;9.30;99.90;;;;;;5057641;28;20408;-73
2021/05/28 01:53:20;;;;;;;11.38;7.70;;;9.30;99.90;;;;;;5059170;28;20051;-74
2021/05/28 01:55:46;;;;;;;14.15;7.30;;;9.30;99.90;;;;;;5057457;28;20045;-75
2021/05/28 01:58:14;;;;;;;16.90;6.80;;;9.30;99.90;;;;;;5056255;28;20081;-74
2021/05/28 02:00:40;;;;;;;11.43;7.10;;;9.30;99.90;;;;;;5059098;28;20491;-74
2021/05/28 02:03:07;;;;;;;18.67;8.38;;;9.30;99.90;;;;;;5061148;28;20558;-74
2021/05/28 02:05:34;;;;;;;13.93;7.03;;;9.30;99.90;;;;;;5057423;28;20083;-74
2021/05/28 02:08:00;;;;;;;16.08;7.70;;;9.30;99.90;;;;;;5058492;28;20036;-74
2021/05/28 02:10:26;;;;;;;12.27;8.18;;;9.30;99.90;;;;;;5056785;28;20505;-74
2021/05/28 02:12:54;;;;;;;18.85;8.32;;;9.30;99.90;;;;;;5059218;28;20399;-74
2021/05/28 02:15:20;;;;;;;18.90;8.82;;;9.30;99.90;;;;;;5057803;28;20040;-74
2021/05/28 02:17:46;;;;;;;16.08;7.95;;;9.30;99.90;;;;;;5058406;28;20386;-74
2021/05/28 02:20:12;;;;;;;11.90;8.95;;;9.20;99.90;;;;;;5056122;28;20044;-74
2021/05/28 02:22:38;;;;;;;10.30;8.63;;;9.30;99.90;;;;;;5058419;28;20040;-73
2021/05/28 02:25:05;;;;;;;15.85;8.57;;;9.30;99.90;;;;;;5061736;28;20040;-74
2021/05/28 02:27:33;;;;;;;18.92;9.18;;;9.30;99.90;;;;;;5061278;28;20051;-74
2021/05/28 02:29:59;;;;;;;17.95;8.43;;;9.30;99.90;;;;;;5092094;27;20459;-74
2021/05/28 02:32:25;;;;;;;17.23;8.75;;;9.30;99.90;;;;;;5065183;28;20052;-74
2021/05/28 02:34:51;;;;;;;15.80;9.52;;;9.30;99.90;;;;;;5065015;28;20036;-74
2021/05/28 02:37:17;;;;;;;14.73;8.48;;;9.30;99.90;;;;;;5065680;28;20032;-74
2021/05/28 02:39:43;;;;;;;15.27;8.65;;;9.60;99.90;;;;;;5066194;28;20044;-74
2021/05/28 02:42:09;;;;;;;15.18;7.90;;;9.40;99.90;;;;;;5062959;28;20032;-74
2021/05/28 02:44:35;;;;;;;15.50;8.48;;;9.30;99.90;;;;;;5064653;28;20036;-74
2021/05/28 02:47:02;;;;;;;16.05;7.40;;;9.30;99.90;;;;;;5061319;28;20111;-74
2021/05/28 02:49:28;;;;;;;15.40;7.85;;;9.30;99.90;;;;;;5062814;28;20938;-74
2021/05/28 02:51:54;;;;;;;20.52;8.85;;;9.40;99.90;;;;;;5063457;28;20044;-74
2021/05/28 02:54:20;;;;;;;13.65;7.20;;;9.30;99.90;;;;;;5066103;28;20037;-74
2021/05/28 02:56:45;;;;;;;18.67;7.45;;;9.40;99.90;;;;;;5061862;28;20044;-74
2021/05/28 02:59:11;;;;;;;15.32;7.22;;;9.40;99.90;;;;;;5060553;28;20108;-74
2021/05/28 03:01:37;;;;;;;11.90;6.80;;;9.30;99.90;;;;;;5063401;28;20047;-74
2021/05/28 03:04:03;;;;;;;14.80;7.18;;;9.40;99.90;;;;;;5062832;28;20119;-74
2021/05/28 03:06:30;;;;;;;20.05;6.82;;;9.40;99.90;;;;;;5093277;28;20414;-74
2021/05/28 03:08:56;;;;;;;14.00;6.32;;;9.40;99.90;;;;;;5064121;28;20058;-74
2021/05/28 03:11:22;;;;;;;16.02;6.18;;;9.40;99.90;;;;;;5066101;28;20040;-74
2021/05/28 03:13:48;;;;;;;12.32;6.97;;;9.40;99.90;;;;;;5053884;28;20040;-74
2021/05/28 03:16:13;;;;;;;12.55;5.63;;;9.50;99.90;;;;;;5057013;28;20098;-74
2021/05/28 03:24:02;;;;;;;12.13;5.35;;;9.50;99.90;;;;;;5053199;28;20130;-74
2021/05/28 03:26:28;;;;;;;12.40;5.88;;;9.50;99.90;;;;;;5056385;28;20028;-74
2021/05/28 03:28:55;;;;;;;13.85;5.45;;;9.50;99.90;;;;;;5058460;28;20049;-74
2021/05/28 03:31:22;;;;;;;18.10;4.97;;;9.50;99.90;;;;;;5055640;28;20079;-74
2021/05/28 03:33:48;;;;;;;10.27;5.03;;;9.50;99.90;;;;;;5056880;28;20193;-74
2021/05/28 03:36:15;;;;;;;10.35;4.82;;;9.50;99.90;;;;;;5056296;28;20041;-74
2021/05/28 03:38:41;;;;;;;13.40;4.50;;;9.50;99.90;;;;;;5054327;28;20037;-74
2021/05/28 03:41:07;;;;;;;11.75;4.90;;;9.50;99.90;;;;;;5059430;28;20040;-74
2021/05/28 03:43:35;;;;;;;9.98;4.80;;;9.50;99.90;;;;;;5055759;28;20095;-74
2021/05/28 03:46:02;;;;;;;9.20;5.30;;;9.50;99.90;;;;;;5054746;28;20201;-74
2021/05/28 03:48:28;;;;;;;8.85;4.80;;;9.50;99.90;;;;;;5053850;28;20075;-74
2021/05/28 03:50:53;;;;;;;12.23;4.57;;;9.50;99.90;;;;;;5055896;28;20201;-74
2021/05/28 03:53:19;;;;;;;7.85;4.68;;;9.50;99.90;;;;;;5054991;28;20086;-74
2021/05/28 03:55:45;;;;;;;10.25;5.10;;;9.50;99.90;;;;;;5057847;28;20033;-74
2021/05/28 03:58:11;;;;;;;12.32;5.10;;;9.60;99.90;;;;;;5055252;28;20218;-74
2021/05/28 04:00:37;;;;;;;13.05;5.40;;;9.50;99.90;;;;;;5056911;28;20136;-74
2021/05/28 04:03:03;;;;;;;9.43;4.78;;;9.60;99.90;;;;;;5055951;28;20498;-74
2021/05/28 04:05:28;;;;;;;9.82;4.53;;;9.50;99.90;;;;;;5054510;28;20049;-74
2021/05/28 04:07:54;;;;;;;9.55;4.28;;;9.60;99.90;;;;;;5053851;28;20044;-74
2021/05/28 04:10:21;;;;;;;13.02;4.82;;;9.60;99.90;;;;;;5058620;28;20044;-74
2021/05/28 04:12:46;;;;;;;7.03;4.00;;;9.60;99.90;;;;;;5054102;28;20483;-74
2021/05/28 04:15:13;;;;;;;12.95;4.57;;;9.60;99.90;;;;;;5055856;28;20040;-74
2021/05/28 04:17:38;;;;;;;10.95;4.10;;;9.70;99.90;;;;;;5052603;28;20068;-74
2021/05/28 04:20:05;;;;;;;7.50;3.53;;;9.90;99.90;;;;;;5056291;28;20033;-74
2021/05/28 04:22:31;;;;;;;7.93;4.43;;;10.30;99.90;;;;;;5055279;28;20044;-74
2021/05/28 04:24:57;;;;;;;9.05;4.07;;;10.40;99.90;;;;;;5052438;28;20048;-74
2021/05/28 04:27:23;;;;;;;13.80;4.82;;;10.50;99.90;;;;;;5057963;28;20068;-74
2021/05/28 04:29:49;;;;;;;12.07;4.88;;;10.50;99.90;;;;;;5055099;28;20049;-74
2021/05/28 04:32:16;;;;;;;11.45;4.70;;;10.50;99.90;;;;;;5055930;28;20630;-75
2021/05/28 04:34:43;;;;;;;10.85;4.53;;;10.60;99.90;;;;;;5051701;28;20033;-75
2021/05/28 04:37:09;;;;;;;10.18;4.55;;;10.70;99.90;;;;;;5054574;28;20632;-74
2021/05/28 04:39:35;;;;;;;10.82;4.50;;;10.70;99.90;;;;;;5053493;28;20064;-74
2021/05/28 04:42:01;;;;;;;10.57;4.10;;;10.70;99.90;;;;;;5053696;28;20059;-74
2021/05/28 04:44:26;;;;;;;11.18;5.15;;;10.70;99.90;;;;;;5056450;28;20045;-75
2021/05/28 04:46:53;;;;;;;11.80;4.65;;;10.70;99.90;;;;;;5055358;28;20062;-74
2021/05/28 04:49:18;;;;;;;11.60;4.45;;;11.10;99.90;;;;;;5055445;28;20123;-74
2021/05/28 04:51:44;;;;;;;10.23;4.78;;;11.00;99.90;;;;;;5057829;28;20082;-74
2021/05/28 04:54:10;;;;;;;9.60;4.45;;;11.20;99.90;;;;;;5055894;28;20957;-75
2021/05/28 04:56:36;;;;;;;13.75;4.50;;;11.50;99.90;;;;;;5056179;28;20051;-75
2021/05/28 04:59:02;;;;;;;12.00;4.68;;;11.60;99.90;;;;;;5052413;28;20037;-75
2021/05/28 05:01:28;;;;;;;12.15;5.30;;;11.60;99.90;;;;;;5054699;28;20044;-75
2021/05/28 05:03:53;;;;;;;7.07;4.22;;;11.70;99.90;;;;;;5063332;28;20068;-74
2021/05/28 05:06:19;;;;;;;11.50;4.90;;;11.70;99.90;;;;;;5061721;28;20037;-75
2021/05/28 05:08:45;;;;;;;10.02;4.53;;;11.70;99.90;;;;;;5058177;28;20048;-75
2021/05/28 05:11:11;;;;;;;12.88;4.57;;;11.70;99.90;;;;;;5057607;28;20040;-75
2021/05/28 05:13:37;;;;;;;11.18;5.05;;;11.70;99.90;;;;;;5056791;28;20688;-75
2021/05/28 05:16:03;;;;;;;15.52;4.88;;;12.00;99.90;;;;;;5062436;28;20040;-75
2021/05/28 05:18:29;;;;;;;12.63;4.43;;;12.10;99.90;;;;;;5060370;28;20041;-75
2021/05/28 05:20:56;;;;;;;13.43;4.88;;;12.20;99.90;;;;;;5061957;28;20414;-75
2021/05/28 05:23:22;;;;;;;12.25;4.93;;;12.40;99.90;;;;;;5059209;28;20056;-75
2021/05/28 05:25:48;;;;;;;9.00;5.22;;;12.80;99.90;;;;;;5058293;28;20067;-75
2021/05/28 05:28:13;;;;;;;12.48;4.30;;;13.00;99.90;;;;;;5063956;28;20067;-75
2021/05/28 05:30:41;;;;;;;7.63;3.95;;;13.40;99.90;;;;;;5064949;28;20055;-75
2021/05/28 05:33:07;;;;;;;11.50;4.65;;;13.80;99.90;;;;;;5065154;28;20045;-74
2021/05/28 05:35:34;;;;;;;8.25;4.65;;;14.20;99.90;;;;;;5068691;28;20090;-75
2021/05/28 05:38:01;;;;;;;11.10;4.40;;;14.60;99.90;;;;;;5068419;28;20047;-75
2021/05/28 05:40:27;;;;;;;11.02;4.20;;;14.90;99.90;;;;;;5064759;28;20059;-75
2021/05/28 05:42:52;;;;;;;8.88;4.65;;;15.30;99.90;;;;;;5064930;28;20036;-76
2021/05/28 05:45:19;;;;;;;9.63;4.55;;;15.60;99.50;;;;;;5065473;28;20044;-75
2021/05/28 05:47:45;;;;;;;9.55;4.07;;;15.70;98.50;;;;;;5063941;28;20071;-74
2021/05/28 05:50:12;;;;;;;7.78;4.18;;;15.80;98.00;;;;;;5066516;28;20101;-74
2021/05/28 05:52:40;;;;;;;10.40;3.90;;;15.90;97.40;;;;;;5063001;28;20050;-74
2021/05/28 05:55:07;;;;;;;12.70;4.68;;;15.90;97.10;;;;;;5065736;28;20517;-75
2021/05/28 05:57:32;;;;;;;10.60;4.50;;;15.80;96.30;;;;;;5065138;28;20048;-75
2021/05/28 05:59:58;;;;;;;11.30;4.97;;;15.60;96.30;;;;;;5064674;28;20128;-75
2021/05/28 06:02:24;;;;;;;8.05;4.30;;;15.40;96.20;;;;;;5064381;28;20053;-75
2021/05/28 06:04:49;;;;;;;12.93;5.38;;;15.20;96.00;;;;;;5066014;28;20487;-75
2021/05/28 06:07:15;;;;;;;10.80;4.82;;;15.10;95.70;;;;;;5064753;28;20153;-75
2021/05/28 06:09:41;;;;;;;7.85;4.47;;;14.90;95.90;;;;;;5064695;28;20391;-75
2021/05/28 06:12:08;;;;;;;8.77;4.60;;;14.80;96.30;;;;;;5069881;28;20028;-75
2021/05/28 06:14:34;;;;;;;10.13;4.80;;;14.70;96.90;;;;;;5062092;28;20064;-75
2021/05/28 06:16:59;;;;;;;12.57;4.47;;;14.40;97.20;;;;;;5062672;28;20505;-75
2021/05/28 06:19:25;;;;;;;8.95;4.63;;;14.30;97.50;;;;;;5060875;28;20043;-75
2021/05/28 06:21:52;;;;;;;11.50;4.15;;;14.30;97.90;;;;;;5064066;28;20041;-75
2021/05/28 06:24:18;;;;;;;11.48;4.20;;;14.30;98.10;;;;;;5059560;28;20124;-75
2021/05/28 06:26:44;;;;;;;10.63;4.18;;;14.30;98.10;;;;;;5058862;28;20028;-75
2021/05/28 06:29:10;;;;;;;10.48;4.10;;;14.40;98.10;;;;;;5060293;28;20041;-72
2021/05/28 06:31:37;;;;;;;11.15;4.97;;;14.50;98.00;;;;;;5056724;28;20048;-72
2021/05/28 06:34:03;;;;;;;10.40;3.97;;;14.60;98.00;;;;;;5055449;28;20040;-73
2021/05/28 06:36:29;;;;;;;9.68;4.30;;;14.90;97.90;;;;;;5058053;28;20128;-73
2021/05/28 06:38:56;;;;;;;10.45;3.90;;;15.10;97.00;;;;;;5059472;28;20496;-74
2021/05/28 06:41:22;;;;;;;7.03;3.70;;;15.20;96.30;;;;;;5053232;28;20033;-74
2021/05/28 06:43:49;;;;;;;10.18;3.67;;;15.00;96.30;;;;;;5051898;28;20040;-74
2021/05/28 06:46:15;;;;;;;9.45;4.43;;;14.90;96.70;;;;;;5056854;28;20068;-74
2021/05/28 06:48:41;;;;;;;7.93;3.78;;;14.90;96.90;;;;;;5056794;28;21643;-74
2021/05/28 06:51:07;;;;;;;9.38;4.45;;;14.90;97.00;;;;;;5056764;28;20033;-73
2021/05/28 06:53:32;;;;;;;11.40;4.70;;;15.20;96.80;;;;;;5052634;28;20717;-73
2021/05/28 06:55:58;;;;;;;9.32;4.22;;;15.50;95.80;;;;;;5056790;28;20573;-74
2021/05/28 06:58:24;;;;;;;6.93;3.55;;;15.80;94.40;;;;;;5053862;28;20041;-74
2021/05/28 07:00:50;;;;;;;8.77;3.72;;;15.70;93.40;;;;;;5056589;28;20594;-74
2021/05/28 07:03:16;;;;;;;10.15;4.05;;;15.40;93.70;;;;;;5053500;28;20032;-74
2021/05/28 07:05:41;;;;;;;9.25;4.90;;;15.10;94.10;;;;;;5055444;28;20143;-74
2021/05/28 07:08:07;;;;;;;11.05;4.03;;;14.90;94.40;;;;;;5055677;28;20055;-74
2021/05/28 07:10:33;;;;;;;11.98;5.05;;;14.80;95.60;;;;;;5053664;28;20040;-74
2021/05/28 07:12:59;;;;;;;8.30;4.40;;;14.80;97.00;;;;;;5055903;28;20056;-73
2021/05/28 07:15:25;;;;;;;10.75;5.55;;;14.90;97.20;;;;;;5054057;28;20036;-74
2021/05/28 07:17:51;;;;;;;8.93;4.32;;;15.20;97.30;;;;;;5056545;28;20149;-74
2021/05/28 07:20:17;;;;;;;8.23;3.97;;;15.50;96.80;;;;;;5054829;28;20486;-74
2021/05/28 07:22:43;;;;;;;7.97;3.88;;;15.80;95.40;;;;;;5053413;28;20390;-74
2021/05/28 07:25:09;;;;;;;10.60;3.80;;;16.10;94.70;;;;;;5051054;28;20044;-74
2021/05/28 07:27:35;;;;;;;8.43;3.78;;;16.40;95.20;;;;;;5052821;28;20044;-75
2021/05/28 07:30:01;;;;;;;6.68;3.92;;;16.70;94.20;;;;;;5082954;27;20040;-75
2021/05/28 07:32:28;;;;;;;9.25;4.43;;;17.00;94.10;;;;;;5053649;28;20579;-75
2021/05/28 07:34:54;;;;;;;8.77;4.43;;;17.20;93.60;;;;;;5056108;28;20041;-75
2021/05/28 07:37:20;;;;;;;9.23;3.92;;;17.40;93.50;;;;;;5056316;28;20055;-74
2021/05/28 07:39:46;;;;;;;8.15;3.72;;;17.60;93.50;;;;;;5052337;28;20106;-75
2021/05/28 07:42:16;;;;;;;9.32;3.88;;;17.70;92.40;;;;;;5057299;28;20497;-75
2021/05/28 07:44:43;;;;;;;9.38;3.92;;;17.90;93.00;;;;;;5055635;28;20403;-75
2021/05/28 07:47:09;;;;;;;4.68;2.67;;;18.10;92.20;;;;;;5052158;28;20521;-75
2021/05/28 07:49:35;;;;;;;10.18;3.40;;;18.30;91.00;;;;;;5052442;28;21056;-75
2021/05/28 07:52:01;;;;;;;6.15;3.50;;;18.40;91.30;;;;;;5054217;28;20028;-75
2021/05/28 07:54:27;;;;;;;5.32;3.55;;;18.40;91.30;;;;;;5053633;28;20041;-75
2021/05/28 07:56:53;;;;;;;7.05;3.25;;;18.50;90.50;;;;;;5052834;28;20041;-75
2021/05/28 07:59:18;;;;;;;7.95;2.85;;;18.60;90.50;;;;;;5056396;28;20514;-75
2021/05/28 08:01:45;;;;;;;6.88;3.22;;;18.80;90.30;;;;;;5049881;28;20044;-75
2021/05/28 08:04:11;;;;;;;3.95;2.60;;;18.90;89.70;;;;;;5054620;28;20475;-75
2021/05/28 08:06:36;;;;;;;10.27;4.15;;;19.00;90.70;;;;;;5055208;28;20048;-75
2021/05/28 08:09:03;;;;;;;6.05;3.00;;;19.10;89.60;;;;;;5054352;28;20052;-75
2021/05/28 08:11:28;;;;;;;8.48;3.58;;;19.20;88.00;;;;;;5054253;28;20033;-75
2021/05/28 08:13:54;;;;;;;7.78;3.53;;;19.30;89.60;;;;;;5084352;27;20503;-75
2021/05/28 08:16:20;;;;;;;7.70;3.10;;;19.40;89.60;;;;;;5055671;28;20111;-75
2021/05/28 08:18:46;;;;;;;8.45;4.28;;;19.50;89.60;;;;;;5052060;28;20037;-75
2021/05/28 08:21:12;;;;;;;6.07;3.30;;;19.50;89.10;;;;;;5057683;28;20485;-75
2021/05/28 08:23:39;;;;;;;5.60;3.05;;;19.60;90.00;;;;;;5053681;28;20040;-75
2021/05/28 08:26:04;;;;;;;5.47;3.17;;;19.80;89.10;;;;;;5052843;28;20487;-75
2021/05/28 08:28:32;;;;;;;7.72;3.25;;;19.80;89.40;;;;;;5053936;28;20040;-75
2021/05/28 08:30:58;;;;;;;5.93;3.42;;;20.00;88.40;;;;;;5057786;28;20742;-75
2021/05/28 08:33:24;;;;;;;8.55;4.03;;;20.00;89.30;;;;;;5054580;28;20476;-75
2021/05/28 08:35:50;;;;;;;7.38;3.58;;;19.90;89.80;;;;;;5052294;28;20044;-75
2021/05/28 08:38:16;;;;;;;8.63;3.92;;;19.80;87.20;;;;;;5053574;28;20037;-75
2021/05/28 08:40:41;;;;;;;8.75;4.07;;;19.80;89.20;;;;;;5057335;28;20122;-75
2021/05/28 08:43:07;;;;;;;5.57;3.00;;;19.60;88.20;;;;;;5054859;28;20047;-74
2021/05/28 08:45:34;;;;;;;7.88;3.55;;;19.40;87.40;;;;;;5057693;28;20049;-75
2021/05/28 08:47:59;;;;;;;8.52;3.92;;;19.50;89.40;;;;;;5055749;28;20064;-75
2021/05/28 08:50:26;;;;;;;8.48;3.83;;;19.70;90.40;;;;;;5055959;28;20066;-75
2021/05/28 08:52:54;;;;;;;8.32;3.60;;;19.70;89.60;;;;;;5055939;28;20933;-75
2021/05/28 08:55:20;;;;;;;7.97;4.13;;;19.60;88.80;;;;;;5057340;28;20045;-75
2021/05/28 08:57:46;;;;;;;5.78;3.47;;;19.60;89.60;;;;;;5058605;28;20543;-75
2021/05/28 09:00:12;;;;;;;7.63;2.95;;;19.70;90.20;;;;;;5084455;28;20413;-75
2021/05/28 09:02:39;;;;;;;9.48;3.53;;;20.10;90.30;;;;;;5058706;28;20147;-75
2021/05/28 09:05:09;;;;;;;8.15;3.70;;;20.10;89.80;;;;;;5053669;28;20138;-75
2021/05/28 09:07:35;;;;;;;6.43;3.38;;;20.00;88.50;;;;;;5057107;28;20036;-75
2021/05/28 09:10:00;;;;;;;10.85;3.75;;;19.80;87.50;;;;;;5055556;28;20040;-75
2021/05/28 09:12:27;;;;;;;8.07;3.92;;;19.50;89.20;;;;;;5056500;28;20459;-75
2021/05/28 09:14:53;;;;;;;7.22;3.03;;;19.20;89.00;;;;;;5086958;28;20463;-75
2021/05/28 09:17:20;;;;;;;4.90;3.05;;;19.40;90.70;;;;;;5056800;28;20063;-75
2021/05/28 09:19:56;;;;;;;5.03;3.15;;;19.30;90.20;;;;;;5086875;28;20044;-74
2021/05/28 09:22:32;;;;;;;6.72;3.88;;;19.20;90.10;;;;;;5056112;28;20041;-74
2021/05/28 09:24:58;;;;;;;7.10;3.67;;;19.20;90.10;;;;;;5057199;28;20048;-75
2021/05/28 09:27:29;;;;;;;9.13;3.67;;;19.30;91.10;;;;;;5058698;28;20044;-74
2021/05/28 09:30:06;;;;;;;5.90;3.00;;;19.30;91.20;;;;;;5058068;28;20849;-74
2021/05/28 09:32:33;;;;;;;6.65;3.22;;;19.40;91.50;;;;;;5085940;28;20033;-74
2021/05/28 09:35:00;;;;;;;6.60;2.88;;;19.60;91.00;;;;;;5059145;28;20040;-75
2021/05/28 09:37:37;;;;;;;8.55;3.30;;;19.80;91.00;;;;;;5055061;28;20128;-75
2021/05/28 09:40:09;;;;;;;4.68;3.42;;;20.20;90.00;;;;;;5054894;28;20136;-74
2021/05/28 09:42:51;;;;;;;5.05;2.90;;;20.10;87.50;;;;;;5056032;28;21714;-74
2021/05/28 09:45:45;;;;;;;13.18;4.07;;;20.30;86.00;;;;;;5055152;28;20062;-75
2021/05/28 09:48:14;;;;;;;5.55;2.85;;;20.60;88.40;;;;;;5059034;28;20043;-75
2021/05/28 09:50:51;;;;;;;6.25;2.83;;;20.70;86.40;;;;;;5052942;28;20046;-75
2021/05/28 09:53:28;;;;;;;6.60;2.90;;;20.80;86.60;;;;;;5054169;28;20037;-75
2021/05/28 09:55:55;;;;;;;8.77;2.75;;;20.80;87.40;;;;;;5055850;28;20037;-75
2021/05/28 09:58:22;;;;;;;5.43;2.75;;;20.90;86.60;;;;;;5054486;28;20046;-75
2021/05/28 10:00:48;;;;;;;8.13;3.80;;;20.90;85.90;;;;;;5056654;28;20095;-75
2021/05/28 10:03:19;;;;;;;5.15;2.85;;;20.80;84.70;;;;;;5056071;28;20467;-75
2021/05/28 10:05:55;;;;;;;5.63;3.00;;;20.40;85.40;;;;;;5053041;28;20037;-75
2021/05/28 10:08:23;;;;;;;6.22;2.95;;;20.10;84.60;;;;;;5055143;28;20124;-75
2021/05/28 10:10:50;;;;;;;12.50;5.43;;;20.00;86.30;;;;;;5056062;28;20384;-75
2021/05/28 10:13:19;;;;;;;6.40;2.75;;;19.70;85.10;;;;;;5053944;28;20041;-72
2021/05/28 10:15:53;;;;;;;5.10;2.63;;;19.50;87.00;;;;;;5056950;28;20041;-73
2021/05/28 10:18:20;;;;;;;8.73;2.25;;;19.40;87.70;;;;;;5055684;28;20055;-74
2021/05/28 10:20:50;;;;;;;10.07;6.25;;;19.40;87.10;;;;;;5055755;28;20041;-74
2021/05/28 10:23:16;;;;;;;4.28;2.05;;;19.50;89.00;;;;;;5055812;28;20143;-74
2021/05/28 10:25:43;;;;;;;9.00;2.40;;;19.50;88.20;;;;;;5056014;28;20107;-74
2021/05/28 10:28:27;;;;;;;5.78;3.03;;;19.60;89.00;;;;;;5054830;28;20087;-73
2021/05/28 10:30:52;;;;;;;46.80;14.23;;;19.70;89.70;;;;;;5058717;28;20036;-73
2021/05/28 10:33:32;;;;;;;134.27;25.17;;;19.80;90.10;;;;;;5084692;28;20052;-73
2021/05/28 10:35:59;;;;;;;7.90;2.70;;;19.80;89.70;;;;;;5052709;28;20067;-74
2021/05/28 10:38:34;;;;;;;6.40;2.58;;;19.80;87.90;;;;;;5056803;28;20048;-73
2021/05/28 10:41:05;;;;;;;4.43;2.67;;;19.90;88.80;;;;;;5055812;28;20033;-73
2021/05/28 10:43:51;;;;;;;9.07;2.60;;;20.00;89.30;;;;;;5055328;28;20036;-74
2021/05/28 10:46:18;;;;;;;4.95;2.60;;;19.90;88.20;;;;;;5055701;28;21022;-73
2021/05/28 10:49:08;;;;;;;4.22;2.60;;;19.90;84.50;;;;;;5063374;28;20033;-74
2021/05/28 10:51:34;;;;;;;5.95;2.92;;;19.90;85.10;;;;;;5059172;28;20046;-74
2021/05/28 10:54:00;;;;;;;6.07;2.30;;;20.00;85.80;;;;;;5059734;28;20052;-73
2021/05/28 10:56:26;;;;;;;3.97;2.10;;;20.00;82.10;;;;;;5056674;28;20045;-73
2021/05/28 10:58:53;;;;;;;4.63;1.88;;;20.10;86.80;;;;;;5061560;28;20419;-73
2021/05/28 11:01:53;;;;;;;7.72;2.58;;;20.40;85.10;;;;;;5056877;28;20044;-74
2021/05/28 11:04:29;;;;;;;6.63;2.70;;;20.50;82.00;;;;;;5062031;28;20103;-74
2021/05/28 11:07:02;;;;;;;5.25;2.75;;;20.40;84.10;;;;;;5061273;28;20036;-73
2021/05/28 11:09:51;;;;;;;3.75;2.00;;;20.50;83.50;;;;;;5061083;28;20127;-73
2021/05/28 11:12:26;;;;;;;2.75;1.67;;;20.70;80.50;;;;;;5055846;28;20060;-73
2021/05/28 11:15:08;;;;;;;5.35;2.03;;;20.90;81.50;;;;;;5058711;28;20482;-74
2021/05/28 11:18:09;;;;;;;3.45;1.73;;;21.10;81.10;;;;;;5058424;28;20044;-74
2021/05/28 11:20:37;;;;;;;5.45;1.70;;;21.20;82.20;;;;;;5018592;28;20231;-73
2021/05/28 11:23:23;;;;;;;3.00;1.83;;;21.20;79.40;;;;;;5050472;28;20053;-73
2021/05/28 11:25:53;;;;;;;2.72;1.30;;;21.30;80.10;;;;;;5056331;28;20053;-73
2021/05/28 11:28:19;;;;;;;3.80;1.25;;;21.10;74.00;;;;;;5060645;28;20542;-74
2021/05/28 11:30:54;;;;;;;2.17;0.93;;;21.10;77.10;;;;;;5062253;28;20484;-74
2021/05/28 11:33:32;;;;;;;;;;;21.10;74.20;;;;;;5059363;28;20044;-74
2021/05/28 11:36:00;;;;;;;3.58;1.48;;;21.00;76.90;;;;;;5058537;28;20093;-73
2021/05/28 11:38:33;;;;;;;4.18;1.90;;;20.90;76.70;;;;;;5060595;28;20036;-73
2021/05/28 11:40:59;;;;;;;5.07;1.58;;;20.90;69.90;;;;;;5060164;28;20036;-74
2021/05/28 11:43:25;;;;;;;2.70;1.20;;;20.90;75.40;;;;;;5061602;28;20510;-73
2021/05/28 11:45:52;;;;;;;2.75;1.40;;;21.00;82.90;;;;;;5059546;28;20041;-74
2021/05/28 11:48:18;;;;;;;3.88;0.80;;;21.00;78.50;;;;;;5093886;28;20044;-74
2021/05/28 11:51:00;;;;;;;3.83;0.80;;;21.10;74.70;;;;;;5058739;28;20048;-74
2021/05/28 11:53:31;;;;;;;2.47;1.05;;;21.30;68.80;;;;;;5057724;28;20051;-74
2021/05/28 11:55:58;;;;;;;3.80;1.30;;;21.40;72.90;;;;;;5056883;28;20047;-73
2021/05/28 11:58:33;;;;;;;1.73;0.93;;;21.40;69.30;;;;;;5058291;28;20126;-73
2021/05/28 12:01:00;;;;;;;4.75;1.15;;;21.50;70.00;;;;;;5060631;28;20036;-74
2021/05/28 12:03:25;;;;;;;1.60;1.05;;;21.40;70.10;;;;;;5057030;28;20155;-73
2021/05/28 12:05:52;;;;;;;11.40;1.35;;;21.20;68.50;;;;;;5053755;28;20124;-73
2021/05/28 12:08:25;;;;;;;2.92;0.90;;;20.80;71.80;;;;;;5054171;28;20064;-73
2021/05/28 12:10:59;;;;;;;7.20;1.27;;;20.80;79.40;;;;;;5054821;28;20705;-73
2021/05/28 12:13:33;;;;;;;2.03;1.20;;;20.80;77.20;;;;;;5053933;28;20418;-73
2021/05/28 12:16:10;;;;;;;2.35;1.13;;;20.90;71.80;;;;;;5055519;28;20414;-73
2021/05/28 12:18:38;;;;;;;3.50;1.42;;;20.90;67.40;;;;;;5056450;28;20496;-73
2021/05/28 12:21:09;;;;;;;3.95;2.08;;;20.60;74.30;;;;;;5057532;28;20047;-73
2021/05/28 12:23:42;;;;;;;5.53;1.52;;;20.60;76.30;;;;;;5052444;28;20047;-73
2021/05/28 12:26:16;;;;;;;2.17;1.02;;;20.50;67.50;;;;;;5055088;28;20051;-73
2021/05/28 12:28:45;;;;;;;5.60;0.95;;;20.50;67.90;;;;;;5084160;28;20044;-73
2021/05/28 12:31:11;;;;;;;2.83;0.85;;;20.20;67.60;;;;;;5057051;28;20113;-73
2021/05/28 12:33:46;;;;;;;2.85;0.98;;;19.90;70.30;;;;;;5054581;28;20493;-73
2021/05/28 12:36:14;;;;;;;3.97;1.10;;;19.90;75.90;;;;;;5057075;28;20572;-73
2021/05/28 12:38:45;;;;;;;1.63;0.80;;;19.60;76.20;;;;;;5054626;28;20090;-73
2021/05/28 12:41:14;;;;;;;3.63;0.93;;;19.50;78.20;;;;;;5055321;28;20032;-73
2021/05/28 12:43:43;;;;;;;5.65;1.55;;;19.60;79.70;;;;;;5054580;28;20055;-73
2021/05/28 12:46:32;;;;;;;1.88;0.60;;;19.90;80.30;;;;;;5055359;28;21587;-73
2021/05/28 12:49:00;;;;;;;8.50;0.93;;;20.30;74.00;;;;;;5055916;28;20044;-73
2021/05/28 12:51:28;;;;;;;2.85;1.00;;;20.60;74.00;;;;;;5055401;28;20047;-73
2021/05/28 12:53:54;;;;;;;2.50;0.85;;;20.90;74.30;;;;;;5082402;28;20491;-73